THY10 KLAX-LTFM
Flight info
| Callsign | THY10 |
|---|---|
| Flight time | N/A |
| Altitude | 31000 |
| Route | ORCKA5 LAS Q70 BLIPP Q842 WINEN DCT CKW DCT DDY J107 DPR/N0491F330 DCT GABOV DCT DUSMA DCT PELSI DCT LOPVI DCT PEPKI/M084F350 DCT NIFTY DCT 63N050W 64N040W 64N030W 64N020W 62N010W DCT GUNPA/N0484F350 DCT ELGIK/N0480F370 DCT KOSEB DCT BINKA DCT ATMEV DCT REGLI DCT REVMA DCT LITKU DCT DEGET DCT TIMUR L606 GASRU T390 RILEX |
| Aircraft | B77W/H-SDE1E2E3FGHIJ2J3J4J5M1RWXY/LB1D1 |
Departure
| Time | 2026-05-04 18:19 |
|---|---|
| Airport | Los Angeles International Airport (KLAX) |
Arrival
| Time | N/A |
|---|---|
| Airport | İstanbul Airport (LTFM) |
| Time | Latitude | Longitude | Altitude | Speed | Heading |
|---|---|---|---|---|---|
| 2026-05-04 17:07 | 33.94100 | -118.41080 | 98 ft | 0 kts | 83° |
| 2026-05-04 18:07 | 33.94099 | -118.41090 | 97 ft | 4 kts | 83° |
| 2026-05-04 18:07 | 33.94095 | -118.41123 | 97 ft | 4 kts | 83° |
| 2026-05-04 18:08 | 33.94092 | -118.41154 | 99 ft | 4 kts | 86° |
| 2026-05-04 18:08 | 33.94095 | -118.41184 | 97 ft | 4 kts | 127° |
| 2026-05-04 18:08 | 33.94111 | -118.41197 | 100 ft | 2 kts | 173° |
| 2026-05-04 18:08 | 33.94136 | -118.41201 | 97 ft | 4 kts | 173° |
| 2026-05-04 18:09 | 33.94144 | -118.41202 | 97 ft | 0 kts | 173° |
| 2026-05-04 18:11 | 33.94140 | -118.41202 | 97 ft | 2 kts | 173° |
| 2026-05-04 18:11 | 33.94111 | -118.41197 | 97 ft | 8 kts | 173° |
| 2026-05-04 18:11 | 33.94044 | -118.41187 | 97 ft | 10 kts | 173° |
| 2026-05-04 18:12 | 33.93977 | -118.41176 | 97 ft | 10 kts | 173° |
| 2026-05-04 18:12 | 33.93909 | -118.41166 | 99 ft | 10 kts | 173° |
| 2026-05-04 18:12 | 33.93841 | -118.41155 | 98 ft | 10 kts | 172° |
| 2026-05-04 18:12 | 33.93777 | -118.41134 | 98 ft | 10 kts | 136° |
| 2026-05-04 18:13 | 33.93772 | -118.41053 | 98 ft | 10 kts | 84° |
| 2026-05-04 18:13 | 33.93780 | -118.40964 | 98 ft | 12 kts | 84° |
| 2026-05-04 18:13 | 33.93807 | -118.40708 | 99 ft | 19 kts | 82° |
| 2026-05-04 18:14 | 33.93825 | -118.40541 | 102 ft | 21 kts | 84° |
| 2026-05-04 18:14 | 33.93842 | -118.40362 | 100 ft | 21 kts | 83° |
| 2026-05-04 18:14 | 33.93859 | -118.40184 | 101 ft | 21 kts | 83° |
| 2026-05-04 18:15 | 33.93897 | -118.39828 | 100 ft | 21 kts | 84° |
| 2026-05-04 18:15 | 33.93932 | -118.39472 | 101 ft | 21 kts | 82° |
| 2026-05-04 18:15 | 33.93951 | -118.39294 | 98 ft | 21 kts | 83° |
| 2026-05-04 18:16 | 33.93969 | -118.39116 | 98 ft | 21 kts | 83° |
| 2026-05-04 18:16 | 33.93987 | -118.38938 | 99 ft | 21 kts | 83° |
| 2026-05-04 18:16 | 33.94005 | -118.38760 | 99 ft | 21 kts | 83° |
| 2026-05-04 18:17 | 33.94042 | -118.38404 | 100 ft | 21 kts | 83° |
| 2026-05-04 18:17 | 33.94061 | -118.38226 | 99 ft | 21 kts | 83° |
| 2026-05-04 18:17 | 33.94044 | -118.38003 | 98 ft | 10 kts | 153° |
| 2026-05-04 18:18 | 33.93989 | -118.38017 | 98 ft | 8 kts | 236° |
| 2026-05-04 18:18 | 33.93976 | -118.38101 | 99 ft | 19 kts | 263° |
| 2026-05-04 18:18 | 33.93931 | -118.38542 | 104 ft | 91 kts | 263° |
| 2026-05-04 18:18 | 33.93823 | -118.39590 | 102 ft | 159 kts | 263° |
| 2026-05-04 18:19 | 33.93475 | -118.42776 | 801 ft | 201 kts | 261° |
| 2026-05-04 18:19 | 33.93293 | -118.44485 | 1445 ft | 204 kts | 262° |
| 2026-05-04 18:19 | 33.93124 | -118.46198 | 1802 ft | 216 kts | 262° |
| 2026-05-04 18:20 | 33.92717 | -118.48019 | 1940 ft | 237 kts | 249° |
| 2026-05-04 18:20 | 33.92083 | -118.49916 | 2294 ft | 250 kts | 246° |
| 2026-05-04 18:20 | 33.91389 | -118.51873 | 2822 ft | 258 kts | 247° |
| 2026-05-04 18:20 | 33.90689 | -118.53883 | 3415 ft | 263 kts | 248° |
| 2026-05-04 18:21 | 33.89984 | -118.55919 | 4112 ft | 264 kts | 248° |
| 2026-05-04 18:21 | 33.89159 | -118.57881 | 4748 ft | 265 kts | 231° |
| 2026-05-04 18:21 | 33.87728 | -118.59276 | 5255 ft | 270 kts | 203° |
| 2026-05-04 18:21 | 33.85890 | -118.59712 | 5820 ft | 274 kts | 176° |
| 2026-05-04 18:22 | 33.84058 | -118.59091 | 6404 ft | 277 kts | 149° |
| 2026-05-04 18:22 | 33.82657 | -118.57506 | 6990 ft | 281 kts | 121° |
| 2026-05-04 18:22 | 33.82028 | -118.55292 | 7510 ft | 285 kts | 92° |
| 2026-05-04 18:22 | 33.82366 | -118.52953 | 7987 ft | 289 kts | 62° |
| 2026-05-04 18:23 | 33.83636 | -118.51108 | 8481 ft | 289 kts | 34° |
| 2026-05-04 18:23 | 33.85323 | -118.49791 | 8966 ft | 291 kts | 32° |
| 2026-05-04 18:23 | 33.87039 | -118.48472 | 9476 ft | 295 kts | 32° |
| 2026-05-04 18:23 | 33.88776 | -118.47126 | 10033 ft | 298 kts | 32° |
| 2026-05-04 18:24 | 33.90541 | -118.45753 | 10410 ft | 309 kts | 32° |
| 2026-05-04 18:24 | 33.92338 | -118.44189 | 10537 ft | 329 kts | 41° |
| 2026-05-04 18:24 | 33.93999 | -118.42196 | 10683 ft | 347 kts | 49° |
| 2026-05-04 18:24 | 33.95473 | -118.39796 | 10854 ft | 367 kts | 56° |
| 2026-05-04 18:25 | 33.96879 | -118.37147 | 11137 ft | 382 kts | 57° |
| 2026-05-04 18:25 | 33.98339 | -118.34430 | 11678 ft | 390 kts | 56° |
| 2026-05-04 18:25 | 33.99854 | -118.31706 | 12392 ft | 392 kts | 56° |
| 2026-05-04 18:25 | 34.01394 | -118.28981 | 13149 ft | 395 kts | 55° |
| 2026-05-04 18:26 | 34.02961 | -118.26223 | 13732 ft | 404 kts | 55° |
| 2026-05-04 18:26 | 34.04567 | -118.23396 | 14216 ft | 413 kts | 55° |
| 2026-05-04 18:26 | 34.06201 | -118.20511 | 14810 ft | 419 kts | 55° |
| 2026-05-04 18:26 | 34.07855 | -118.17591 | 15480 ft | 424 kts | 55° |
| 2026-05-04 18:27 | 34.09525 | -118.14639 | 16117 ft | 428 kts | 55° |
| 2026-05-04 18:27 | 34.11212 | -118.11654 | 16705 ft | 433 kts | 56° |
| 2026-05-04 18:27 | 34.12919 | -118.08630 | 17273 ft | 439 kts | 56° |
| 2026-05-04 18:27 | 34.14645 | -118.05569 | 17847 ft | 443 kts | 56° |
| 2026-05-04 18:28 | 34.16389 | -118.02474 | 18408 ft | 448 kts | 56° |
| 2026-05-04 18:28 | 34.18150 | -117.99345 | 18970 ft | 453 kts | 56° |
| 2026-05-04 18:28 | 34.19930 | -117.96181 | 19523 ft | 458 kts | 56° |
| 2026-05-04 18:28 | 34.21726 | -117.92978 | 20039 ft | 463 kts | 56° |
| 2026-05-04 18:29 | 34.23539 | -117.89753 | 20544 ft | 466 kts | 56° |
| 2026-05-04 18:29 | 34.25372 | -117.86492 | 21003 ft | 471 kts | 56° |
| 2026-05-04 18:29 | 34.27216 | -117.83199 | 21475 ft | 476 kts | 56° |
| 2026-05-04 18:29 | 34.29078 | -117.79870 | 21952 ft | 480 kts | 56° |
| 2026-05-04 18:30 | 34.32211 | -117.74263 | 22712 ft | 487 kts | 56° |
| 2026-05-04 18:30 | 34.34113 | -117.70847 | 23081 ft | 492 kts | 56° |
| 2026-05-04 18:30 | 34.36048 | -117.67418 | 23572 ft | 494 kts | 55° |
| 2026-05-04 18:31 | 34.38050 | -117.64023 | 24021 ft | 498 kts | 54° |
| 2026-05-04 18:31 | 34.40097 | -117.60621 | 24397 ft | 502 kts | 54° |
| 2026-05-04 18:31 | 34.42171 | -117.57196 | 24753 ft | 506 kts | 54° |
| 2026-05-04 18:31 | 34.44258 | -117.53740 | 25141 ft | 509 kts | 54° |
| 2026-05-04 18:32 | 34.46346 | -117.50264 | 25528 ft | 512 kts | 54° |
| 2026-05-04 18:32 | 34.48445 | -117.46750 | 25895 ft | 516 kts | 54° |
| 2026-05-04 18:32 | 34.50549 | -117.43214 | 26259 ft | 519 kts | 54° |
| 2026-05-04 18:32 | 34.52662 | -117.39654 | 26608 ft | 522 kts | 54° |
| 2026-05-04 18:33 | 34.54789 | -117.36066 | 26924 ft | 525 kts | 54° |
| 2026-05-04 18:33 | 34.56928 | -117.32453 | 27250 ft | 528 kts | 54° |
| 2026-05-04 18:33 | 34.59078 | -117.28820 | 27579 ft | 531 kts | 54° |
| 2026-05-04 18:33 | 34.61239 | -117.25169 | 27880 ft | 535 kts | 55° |
| 2026-05-04 18:34 | 34.63409 | -117.21493 | 28177 ft | 537 kts | 55° |
| 2026-05-04 18:34 | 34.65593 | -117.17791 | 28464 ft | 540 kts | 55° |
| 2026-05-04 18:34 | 34.67782 | -117.14078 | 28722 ft | 542 kts | 55° |
| 2026-05-04 18:34 | 34.69983 | -117.10343 | 28951 ft | 546 kts | 55° |
| 2026-05-04 18:35 | 34.72197 | -117.06581 | 29188 ft | 548 kts | 55° |
| 2026-05-04 18:35 | 34.74418 | -117.02801 | 29436 ft | 550 kts | 55° |
| 2026-05-04 18:35 | 34.76646 | -116.99008 | 29710 ft | 551 kts | 55° |
| 2026-05-04 18:35 | 34.78873 | -116.95212 | 30043 ft | 551 kts | 55° |
| 2026-05-04 18:36 | 34.81097 | -116.91412 | 30387 ft | 551 kts | 55° |
| 2026-05-04 18:36 | 34.83316 | -116.87618 | 30697 ft | 551 kts | 55° |
| 2026-05-04 18:36 | 34.85538 | -116.83816 | 30914 ft | 552 kts | 55° |
| 2026-05-04 18:37 | 34.90011 | -116.76157 | 30970 ft | 555 kts | 55° |
| 2026-05-04 18:37 | 34.94798 | -116.68857 | 30970 ft | 549 kts | 46° |
| 2026-05-04 18:38 | 35.00029 | -116.62062 | 30972 ft | 550 kts | 46° |
| 2026-05-04 18:38 | 35.05279 | -116.55264 | 30973 ft | 551 kts | 46° |
| 2026-05-04 18:39 | 35.10502 | -116.48399 | 30972 ft | 552 kts | 46° |
| 2026-05-04 18:39 | 35.15708 | -116.41496 | 30970 ft | 553 kts | 46° |
| 2026-05-04 18:40 | 35.20883 | -116.34622 | 30970 ft | 553 kts | 46° |
| 2026-05-04 18:40 | 35.26093 | -116.27702 | 30966 ft | 553 kts | 46° |
| 2026-05-04 18:41 | 35.31296 | -116.20760 | 30986 ft | 554 kts | 47° |
| 2026-05-04 18:41 | 35.36504 | -116.13806 | 30969 ft | 554 kts | 46° |
| 2026-05-04 18:42 | 35.41719 | -116.06841 | 30951 ft | 555 kts | 46° |
| 2026-05-04 18:42 | 35.46927 | -115.99859 | 30957 ft | 554 kts | 46° |
| 2026-05-04 18:43 | 35.52126 | -115.92870 | 30945 ft | 554 kts | 46° |
| 2026-05-04 18:43 | 35.57327 | -115.85872 | 30937 ft | 555 kts | 46° |
| 2026-05-04 18:44 | 35.62522 | -115.78865 | 30940 ft | 555 kts | 46° |
| 2026-05-04 18:44 | 35.67691 | -115.71825 | 30950 ft | 555 kts | 47° |
| 2026-05-04 18:45 | 35.72834 | -115.64741 | 30923 ft | 554 kts | 47° |
| 2026-05-04 18:45 | 35.77962 | -115.57672 | 30937 ft | 554 kts | 47° |
| 2026-05-04 18:46 | 35.83092 | -115.50588 | 30940 ft | 554 kts | 47° |
| 2026-05-04 18:46 | 35.88227 | -115.43489 | 30932 ft | 554 kts | 47° |
| 2026-05-04 18:47 | 35.93348 | -115.36394 | 30931 ft | 553 kts | 47° |
| 2026-05-04 18:47 | 35.98458 | -115.29294 | 30950 ft | 553 kts | 47° |
| 2026-05-04 18:48 | 36.03564 | -115.22190 | 30938 ft | 553 kts | 47° |
| 2026-05-04 18:48 | 36.08721 | -115.15168 | 30924 ft | 550 kts | 43° |
| 2026-05-04 18:49 | 36.14434 | -115.08922 | 30926 ft | 547 kts | 38° |
| 2026-05-04 18:49 | 36.20229 | -115.02816 | 30894 ft | 547 kts | 39° |
| 2026-05-04 18:50 | 36.25987 | -114.96644 | 30876 ft | 547 kts | 39° |
| 2026-05-04 18:50 | 36.31713 | -114.90436 | 30858 ft | 547 kts | 39° |
| 2026-05-04 18:51 | 36.37429 | -114.84230 | 30868 ft | 546 kts | 39° |
| 2026-05-04 18:51 | 36.43137 | -114.78033 | 30867 ft | 545 kts | 39° |
| 2026-05-04 18:52 | 36.48826 | -114.71829 | 30868 ft | 544 kts | 39° |
| 2026-05-04 18:52 | 36.54504 | -114.65620 | 30874 ft | 543 kts | 39° |
| 2026-05-04 18:53 | 36.60174 | -114.59408 | 30885 ft | 543 kts | 39° |
| 2026-05-04 18:53 | 36.65849 | -114.53178 | 30878 ft | 544 kts | 39° |
| 2026-05-04 18:54 | 36.71596 | -114.47047 | 30882 ft | 543 kts | 35° |
| 2026-05-04 18:54 | 36.77888 | -114.41933 | 30901 ft | 539 kts | 28° |
| 2026-05-04 18:55 | 36.84287 | -114.37033 | 30882 ft | 539 kts | 29° |
| 2026-05-04 18:55 | 36.93837 | -114.29586 | 30900 ft | 539 kts | 29° |
| 2026-05-04 18:56 | 37.00138 | -114.24612 | 30897 ft | 538 kts | 30° |
| 2026-05-04 18:56 | 37.06456 | -114.19611 | 30910 ft | 536 kts | 29° |
| 2026-05-04 18:57 | 37.12763 | -114.14621 | 30912 ft | 536 kts | 30° |
| 2026-05-04 18:57 | 37.19060 | -114.09631 | 30907 ft | 534 kts | 30° |
| 2026-05-04 18:58 | 37.25338 | -114.04642 | 30907 ft | 533 kts | 30° |
| 2026-05-04 18:58 | 37.31596 | -113.99657 | 30906 ft | 533 kts | 30° |
| 2026-05-04 18:59 | 37.37853 | -113.94672 | 30914 ft | 532 kts | 29° |
| 2026-05-04 18:59 | 37.44101 | -113.89680 | 30917 ft | 532 kts | 30° |
| 2026-05-04 19:00 | 37.50349 | -113.84681 | 30917 ft | 531 kts | 30° |
| 2026-05-04 19:00 | 37.56577 | -113.79681 | 30913 ft | 530 kts | 30° |
| 2026-05-04 19:01 | 37.62781 | -113.74690 | 30929 ft | 528 kts | 30° |
| 2026-05-04 19:01 | 37.68973 | -113.69699 | 30921 ft | 528 kts | 30° |
| 2026-05-04 19:02 | 37.75162 | -113.64704 | 30945 ft | 528 kts | 30° |
| 2026-05-04 19:02 | 37.81358 | -113.59691 | 30942 ft | 529 kts | 30° |
| 2026-05-04 19:03 | 37.87521 | -113.54697 | 30949 ft | 530 kts | 30° |
| 2026-05-04 19:03 | 37.93524 | -113.49245 | 30946 ft | 533 kts | 38° |
| 2026-05-04 19:04 | 37.98753 | -113.42545 | 30969 ft | 535 kts | 47° |
| 2026-05-04 19:04 | 38.03675 | -113.35446 | 30940 ft | 536 kts | 47° |
| 2026-05-04 19:05 | 38.08597 | -113.28358 | 30954 ft | 534 kts | 46° |
| 2026-05-04 19:05 | 38.13535 | -113.21311 | 30926 ft | 533 kts | 46° |
| 2026-05-04 19:06 | 38.18464 | -113.14288 | 30939 ft | 532 kts | 46° |
| 2026-05-04 19:06 | 38.23384 | -113.07269 | 30915 ft | 531 kts | 46° |
| 2026-05-04 19:07 | 38.28288 | -113.00255 | 30922 ft | 530 kts | 46° |
| 2026-05-04 19:07 | 38.33185 | -112.93231 | 30924 ft | 531 kts | 46° |
| 2026-05-04 19:08 | 38.38082 | -112.86189 | 30914 ft | 531 kts | 46° |
| 2026-05-04 19:08 | 38.42979 | -112.79130 | 30917 ft | 532 kts | 46° |
| 2026-05-04 19:09 | 38.47871 | -112.72065 | 30917 ft | 531 kts | 46° |
| 2026-05-04 19:09 | 38.52754 | -112.64998 | 30914 ft | 531 kts | 46° |
| 2026-05-04 19:10 | 38.57640 | -112.57909 | 30907 ft | 531 kts | 46° |
| 2026-05-04 19:10 | 38.62521 | -112.50814 | 30897 ft | 531 kts | 46° |
| 2026-05-04 19:11 | 38.67392 | -112.43712 | 30906 ft | 530 kts | 46° |
| 2026-05-04 19:11 | 38.72257 | -112.36617 | 30879 ft | 531 kts | 46° |
| 2026-05-04 19:12 | 38.79542 | -112.25955 | 30855 ft | 532 kts | 46° |
| 2026-05-04 19:13 | 38.84402 | -112.18805 | 30855 ft | 531 kts | 47° |
| 2026-05-04 19:13 | 38.89246 | -112.11670 | 30850 ft | 530 kts | 47° |
| 2026-05-04 19:14 | 38.94070 | -112.04535 | 30859 ft | 528 kts | 47° |
| 2026-05-04 19:14 | 38.98884 | -111.97433 | 30859 ft | 526 kts | 47° |
| 2026-05-04 19:15 | 39.03679 | -111.90340 | 30870 ft | 525 kts | 47° |
| 2026-05-04 19:15 | 39.08446 | -111.83255 | 30898 ft | 523 kts | 47° |
| 2026-05-04 19:16 | 39.13202 | -111.76168 | 30907 ft | 523 kts | 47° |
| 2026-05-04 19:16 | 39.17951 | -111.69073 | 30927 ft | 523 kts | 47° |
| 2026-05-04 19:17 | 39.21903 | -111.63177 | 30925 ft | 523 kts | 47° |
| 2026-05-04 19:17 | 39.26654 | -111.56062 | 30933 ft | 524 kts | 47° |
| 2026-05-04 19:18 | 39.31400 | -111.48935 | 30948 ft | 524 kts | 47° |
| 2026-05-04 19:18 | 39.36142 | -111.41786 | 30929 ft | 524 kts | 47° |
| 2026-05-04 19:19 | 39.40881 | -111.34644 | 30938 ft | 523 kts | 47° |
| 2026-05-04 19:19 | 39.45620 | -111.27495 | 30931 ft | 523 kts | 47° |
| 2026-05-04 19:20 | 39.50339 | -111.20334 | 30940 ft | 523 kts | 47° |
| 2026-05-04 19:20 | 39.55060 | -111.13175 | 30938 ft | 522 kts | 47° |
| 2026-05-04 19:21 | 39.59754 | -111.06032 | 30953 ft | 520 kts | 47° |
| 2026-05-04 19:21 | 39.64438 | -110.98879 | 30956 ft | 520 kts | 47° |
| 2026-05-04 19:22 | 39.69125 | -110.91706 | 30956 ft | 521 kts | 47° |
| 2026-05-04 19:22 | 39.73807 | -110.84529 | 30955 ft | 521 kts | 47° |
| 2026-05-04 19:23 | 39.78492 | -110.77333 | 30961 ft | 522 kts | 47° |
| 2026-05-04 19:23 | 39.83177 | -110.70119 | 30955 ft | 522 kts | 47° |
| 2026-05-04 19:24 | 39.87853 | -110.62902 | 30950 ft | 521 kts | 47° |
| 2026-05-04 19:24 | 39.92517 | -110.55687 | 30944 ft | 520 kts | 47° |
| 2026-05-04 19:25 | 39.97171 | -110.48471 | 30929 ft | 520 kts | 47° |
| 2026-05-04 19:25 | 40.01777 | -110.41309 | 30939 ft | 518 kts | 47° |
| 2026-05-04 19:26 | 40.06401 | -110.34103 | 30921 ft | 517 kts | 47° |
| 2026-05-04 19:26 | 40.11012 | -110.26905 | 30922 ft | 516 kts | 47° |
| 2026-05-04 19:27 | 40.15605 | -110.19719 | 30923 ft | 515 kts | 47° |
| 2026-05-04 19:27 | 40.20190 | -110.12525 | 30919 ft | 515 kts | 47° |
| 2026-05-04 19:28 | 40.24779 | -110.05313 | 30912 ft | 516 kts | 47° |
| 2026-05-04 19:28 | 40.29370 | -109.98077 | 30910 ft | 517 kts | 48° |
| 2026-05-04 19:29 | 40.33964 | -109.90820 | 30911 ft | 517 kts | 48° |
| 2026-05-04 19:29 | 40.38556 | -109.83547 | 30912 ft | 517 kts | 48° |
| 2026-05-04 19:30 | 40.43135 | -109.76279 | 30912 ft | 517 kts | 48° |
| 2026-05-04 19:30 | 40.47705 | -109.69009 | 30911 ft | 516 kts | 48° |
| 2026-05-04 19:31 | 40.52261 | -109.61747 | 30916 ft | 514 kts | 48° |
| 2026-05-04 19:31 | 40.56803 | -109.54486 | 30917 ft | 513 kts | 48° |
| 2026-05-04 19:32 | 40.61324 | -109.47233 | 30916 ft | 512 kts | 49° |